Time;durP1;ratioP1;P1;durP2;ratioP2;P2;SDS_P1;SDS_P2;PMS_P1;PMS_P2;Temp;Humidity;BMP_temperature;BMP_pressure;BME280_temperature;BME280_humidity;BME280_pressure;Samples;Min_cycle;Max_cycle;Signal;HPM_P1;HPM_P2
2021/09/17 00:00:31;;;;;;;;;19.25;19.25;;;;;21.22;54.65;101246.41;2072458;28;48235;-53
2021/09/17 00:01:32;;;;;;;;;19.75;18.75;;;;;21.23;54.82;101252.66;2072807;28;47106;-53
2021/09/17 00:02:32;;;;;;;;;21.25;20.25;;;;;21.21;54.66;101247.34;2072999;28;48143;-52
2021/09/17 00:03:33;;;;;;;;;18.00;18.00;;;;;21.21;55.08;101250.03;2073528;28;45995;-53
2021/09/17 00:04:33;;;;;;;;;19.75;19.25;;;;;21.21;55.39;101249.16;2073320;28;48478;-53
2021/09/17 00:05:34;;;;;;;;;19.50;18.00;;;;;21.21;55.13;101244.63;2074682;28;48081;-53
2021/09/17 00:06:34;;;;;;;;;19.75;18.75;;;;;21.20;55.40;101244.72;2074512;28;47067;-54
2021/09/17 00:07:34;;;;;;;;;19.00;18.50;;;;;21.21;55.37;101246.47;2075220;28;48071;-54
2021/09/17 00:08:35;;;;;;;;;19.50;18.25;;;;;21.21;54.85;101247.34;2074980;28;47156;-51
2021/09/17 00:09:35;;;;;;;;;18.00;17.50;;;;;21.19;55.39;101238.47;2074611;28;46010;-52
2021/09/17 00:10:36;;;;;;;;;20.75;20.75;;;;;21.19;55.18;101241.16;2073544;28;45339;-53
2021/09/17 00:11:37;;;;;;;;;19.00;18.50;;;;;21.19;55.31;101241.16;2073432;28;47358;-53
2021/09/17 00:12:38;;;;;;;;;16.75;16.25;;;;;21.17;55.14;101238.56;2073702;28;47211;-54
2021/09/17 00:13:39;;;;;;;;;20.60;20.60;;;;;21.17;54.94;101241.25;2073265;28;46366;-55
2021/09/17 00:14:40;;;;;;;;;18.20;18.20;;;;;21.17;54.96;101241.25;2072581;28;47339;-55
2021/09/17 00:15:41;;;;;;;;;18.00;18.00;;;;;21.16;54.93;101239.50;2073349;28;47705;-55
2021/09/17 00:16:41;;;;;;;;;17.00;16.25;;;;;21.15;55.27;101236.91;2072902;28;47918;-52
2021/09/17 00:17:43;;;;;;;;;21.50;20.00;;;;;21.15;54.75;101237.78;2064640;28;46601;-51
2021/09/17 00:18:43;;;;;;;;;18.20;17.60;;;;;21.14;55.27;101237.88;2073473;28;47220;-53
2021/09/17 00:19:44;;;;;;;;;19.00;19.00;;;;;21.14;55.19;101237.88;2072841;28;48515;-53
2021/09/17 00:20:44;;;;;;;;;30.75;27.50;;;;;21.13;55.37;101238.81;2073980;28;47081;-56
2021/09/17 00:21:45;;;;;;;;;25.00;23.50;;;;;21.11;54.80;101232.66;2073277;28;47407;-52
2021/09/17 00:22:48;;;;;;;;;26.00;24.25;;;;;21.11;55.48;101230.81;2072739;28;47358;-52
2021/09/17 00:23:48;;;;;;;;;26.60;24.60;;;;;21.11;55.32;101228.13;2073140;28;47148;-52
2021/09/17 00:24:49;;;;;;;;;21.75;21.75;;;;;21.11;55.19;101230.81;2071945;28;47267;-50
2021/09/17 00:25:49;;;;;;;;;24.50;22.75;;;;;21.11;55.49;101232.66;2073374;28;48313;-51
2021/09/17 00:26:50;;;;;;;;;22.50;21.00;;;;;21.09;55.00;101235.44;2072099;28;47128;-59
2021/09/17 00:27:52;;;;;;;;;19.50;19.50;;;;;21.08;54.89;101228.28;2072550;28;45565;-52
2021/09/17 00:28:53;;;;;;;;;22.20;21.60;;;;;21.08;55.20;101233.66;2071444;28;48237;-54
2021/09/17 00:29:53;;;;;;;;;20.00;19.00;;;;;21.09;55.02;101231.88;2073601;28;48004;-51
2021/09/17 00:30:54;;;;;;;;;21.25;21.00;;;;;21.09;55.02;101226.47;2073353;28;45195;-52
2021/09/17 00:31:54;;;;;;;;;23.25;22.25;;;;;21.08;55.03;101228.28;2073028;28;47601;-54
2021/09/17 00:32:56;;;;;;;;;19.25;19.25;;;;;21.08;54.98;101230.97;2072877;28;45395;-54
2021/09/17 00:33:56;;;;;;;;;20.20;20.20;;;;;21.08;54.83;101228.28;2075346;28;48774;-52
2021/09/17 00:34:57;;;;;;;;;20.50;20.50;;;;;21.08;54.96;101225.56;2072915;28;47289;-51
2021/09/17 00:35:58;;;;;;;;;19.00;19.00;;;;;21.10;55.07;101225.50;2073682;28;50330;-48
2021/09/17 00:36:58;;;;;;;;;21.00;20.00;;;;;21.08;54.83;101219.31;2073127;28;48429;-48
2021/09/17 00:38:01;;;;;;;;;18.50;18.50;;;;;21.08;55.26;101227.41;2073133;28;46259;-54
2021/09/17 00:39:03;;;;;;;;;18.00;17.80;;;;;21.07;54.91;101228.38;2073181;28;46955;-53
2021/09/17 00:40:04;;;;;;;;;14.00;14.00;;;;;21.06;54.81;101221.22;2080333;28;47176;-50
2021/09/17 00:41:04;;;;;;;;;21.25;18.75;;;;;21.05;54.83;101222.19;2078591;28;48113;-53
2021/09/17 00:42:05;;;;;;;;;21.50;21.00;;;;;21.05;54.79;101228.47;2074745;28;47456;-53
2021/09/17 00:43:05;;;;;;;;;23.00;19.75;;;;;21.05;54.97;101219.50;2074402;28;47897;-53
2021/09/17 00:44:06;;;;;;;;;21.50;20.25;;;;;21.05;55.19;101222.19;2072401;28;46191;-52
2021/09/17 00:45:09;;;;;;;;;21.00;16.75;;;;;21.05;55.59;101228.47;2067041;28;47332;-51
2021/09/17 00:46:10;;;;;;;;;18.80;18.80;;;;;21.04;55.44;101226.72;2074137;28;46801;-53
2021/09/17 00:47:11;;;;;;;;;19.00;18.20;;;;;21.05;55.22;101224.88;2073874;28;48044;-49
2021/09/17 00:48:11;;;;;;;;;23.00;23.00;;;;;21.02;54.99;101219.69;2074744;28;47141;-51
2021/09/17 00:49:12;;;;;;;;;19.50;19.50;;;;;21.02;55.40;101217.84;2074667;28;45415;-50
2021/09/17 00:50:17;;;;;;;;;20.00;19.25;;;;;21.02;55.24;101220.53;2074326;28;46874;-49
2021/09/17 00:51:17;;;;;;;;;19.20;19.20;;;;;21.02;55.69;101216.97;2073251;28;48253;-52
2021/09/17 00:52:18;;;;;;;;;21.00;19.25;;;;;21.02;55.79;101219.69;2075434;28;47310;-50
2021/09/17 00:53:18;;;;;;;;;19.00;18.00;;;;;21.01;55.76;101216.13;2075091;28;47421;-51
2021/09/17 00:54:20;;;;;;;;;20.00;18.50;;;;;21.01;55.30;101215.25;2075225;28;48324;-52
2021/09/17 00:55:20;;;;;;;;;20.40;18.60;;;;;21.00;55.62;101216.19;2073509;28;46494;-51
2021/09/17 00:56:21;;;;;;;;;19.75;18.75;;;;;21.01;55.31;101212.53;2074945;28;46540;-52
2021/09/17 00:57:21;;;;;;;;;19.75;19.75;;;;;21.01;55.72;101215.25;2074116;28;47934;-52
2021/09/17 00:58:21;;;;;;;;;21.75;19.50;;;;;21.01;55.22;101208.00;2074760;28;48486;-51
2021/09/17 00:59:22;;;;;;;;;20.50;19.50;;;;;20.99;55.18;101215.34;2074384;28;46847;-53
2021/09/17 01:00:22;;;;;;;;;22.25;21.00;;;;;20.98;55.63;101204.63;2074019;28;45459;-51
2021/09/17 01:01:23;;;;;;;;;18.00;18.00;;;;;20.96;55.48;101212.81;2073896;28;48171;-52
2021/09/17 01:02:23;;;;;;;;;16.75;16.75;;;;;20.95;55.87;101210.19;2075295;28;46960;-49
2021/09/17 01:03:24;;;;;;;;;19.25;19.25;;;;;20.95;55.46;101207.47;2074967;28;45413;-49
2021/09/17 01:04:25;;;;;;;;;21.25;20.25;;;;;20.93;55.67;101204.88;2075303;28;47384;-53
2021/09/17 01:05:25;;;;;;;;;18.75;18.25;;;;;20.93;55.66;101212.97;2075028;28;47270;-52
2021/09/17 01:06:25;;;;;;;;;18.00;18.00;;;;;20.93;55.62;101201.31;2073225;28;48039;-51
2021/09/17 01:07:26;;;;;;;;;17.75;17.25;;;;;20.93;56.20;101204.00;2074161;28;48330;-51
2021/09/17 01:08:26;;;;;;;;;22.75;20.25;;;;;20.94;55.65;101200.34;2074364;28;47147;-52
2021/09/17 01:09:27;;;;;;;;;19.00;17.00;;;;;20.95;56.00;101199.38;2064913;28;47064;-52
2021/09/17 01:10:28;;;;;;;;;19.25;19.25;;;;;20.94;56.11;101187.72;2074423;28;47428;-49
2021/09/17 01:11:28;;;;;;;;;19.00;18.75;;;;;20.95;56.27;101199.38;2071287;28;48088;-53
2021/09/17 01:12:30;;;;;;;;;20.25;20.25;;;;;20.95;56.30;101205.66;2066424;28;46711;-53
2021/09/17 01:13:31;;;;;;;;;20.00;19.80;;;;;20.95;56.06;101196.69;2072527;28;47308;-51
2021/09/17 01:14:34;;;;;;;;;19.20;19.20;;;;;20.95;56.43;101202.94;2075028;28;47205;-50
2021/09/17 01:15:34;;;;;;;;;22.80;22.00;;;;;20.95;56.30;101194.84;2075251;28;47519;-48
2021/09/17 01:16:34;;;;;;;;;21.75;21.75;;;;;20.94;56.07;101203.91;2074590;28;48026;-49
2021/09/17 01:17:41;;;;;;;;;23.00;21.50;;;;;20.94;55.75;101195.81;2073757;28;48148;-53
2021/09/17 01:18:42;;;;;;;;;21.80;19.40;;;;;20.93;55.79;101202.19;2073924;28;47322;-51
2021/09/17 01:19:43;;;;;;;;;19.50;19.50;;;;;20.94;56.09;101200.34;2078762;28;47735;-52
2021/09/17 01:20:43;;;;;;;;;19.75;19.75;;;;;20.92;55.77;101200.44;2074177;28;47250;-52
2021/09/17 01:21:43;;;;;;;;;28.25;24.50;;;;;20.92;56.13;101200.44;2073643;28;47225;-53
2021/09/17 01:22:46;;;;;;;;;24.00;24.00;;;;;20.93;56.56;101196.78;2076330;28;47059;-53
2021/09/17 01:23:47;;;;;;;;;24.00;22.60;;;;;20.92;56.09;101189.66;2078751;28;48432;-51
2021/09/17 01:24:47;;;;;;;;;20.00;20.00;;;;;20.92;56.47;101195.03;2070161;28;48101;-48
2021/09/17 01:25:48;;;;;;;;;21.75;21.75;;;;;20.92;56.53;101192.34;2076219;28;46664;-52
2021/09/17 01:26:49;;;;;;;;;20.75;19.50;;;;;20.93;56.59;101193.22;2075550;28;48347;-53
2021/09/17 01:27:52;;;;;;;;;22.00;22.00;;;;;20.92;56.67;101191.47;2077785;28;45320;-49
2021/09/17 01:28:52;;;;;;;;;23.60;21.80;;;;;20.91;56.36;101192.44;2074173;28;46538;-52
2021/09/17 01:29:53;;;;;;;;;21.75;20.00;;;;;20.89;56.61;101189.84;2074153;28;48179;-49
2021/09/17 01:30:54;;;;;;;;;29.00;27.25;;;;;20.88;56.80;101187.22;2073799;28;46468;-52
2021/09/17 01:31:55;;;;;;;;;20.40;20.40;;;;;20.88;56.62;101189.91;2073652;28;47581;-51
2021/09/17 01:32:56;;;;;;;;;24.50;23.75;;;;;20.88;56.35;101192.63;2074746;28;48372;-51
2021/09/17 01:34:04;;;;;;;;;24.20;23.00;;;;;20.87;56.50;101183.66;2066467;28;47460;-49
2021/09/17 01:35:05;;;;;;;;;25.60;23.40;;;;;20.86;56.80;101182.78;2067035;28;46212;-49
2021/09/17 01:36:09;;;;;;;;;19.75;19.75;;;;;20.86;56.65;101182.78;2073964;28;47422;-51
2021/09/17 01:37:09;;;;;;;;;23.00;23.00;;;;;20.86;56.70;101188.19;2073220;28;47131;-53
2021/09/17 01:38:11;;;;;;;;;28.25;25.75;;;;;20.86;56.88;101182.78;2074202;28;48472;-53
2021/09/17 01:39:12;;;;;;;;;24.40;22.40;;;;;20.85;56.57;101175.66;2072647;28;48428;-49
2021/09/17 01:40:13;;;;;;;;;24.20;23.20;;;;;20.85;56.78;101175.66;2074714;28;46169;-51
2021/09/17 01:41:14;;;;;;;;;22.20;21.80;;;;;20.84;56.54;101179.31;2074623;28;47591;-52
2021/09/17 01:42:14;;;;;;;;;23.00;23.00;;;;;20.84;56.98;101181.13;2074903;28;47156;-52
2021/09/17 01:43:15;;;;;;;;;23.50;21.25;;;;;20.86;56.47;101184.63;2074826;28;47123;-49
2021/09/17 01:44:15;;;;;;;;;25.00;23.75;;;;;20.83;56.52;101176.66;2074367;28;48247;-53
2021/09/17 01:45:16;;;;;;;;;22.75;22.50;;;;;20.83;56.96;101174.88;2073586;28;47182;-52
2021/09/17 01:46:16;;;;;;;;;24.75;22.00;;;;;20.83;56.59;101182.97;2074948;28;47277;-51
2021/09/17 01:47:17;;;;;;;;;20.25;18.75;;;;;20.82;57.15;101174.94;2072578;28;47255;-49
2021/09/17 01:48:18;;;;;;;;;21.00;21.00;;;;;20.80;57.09;101171.47;2071919;28;47800;-48
2021/09/17 01:49:18;;;;;;;;;26.50;23.75;;;;;20.81;56.96;101175.91;2073595;28;47437;-51
2021/09/17 01:50:18;;;;;;;;;23.75;23.75;;;;;20.79;56.90;101175.97;2074347;28;45438;-51
2021/09/17 01:51:19;;;;;;;;;27.00;26.25;;;;;20.79;56.78;101169.72;2080026;28;48169;-49
2021/09/17 01:52:19;;;;;;;;;24.25;23.50;;;;;20.78;56.74;101168.84;2077616;28;47698;-48
2021/09/17 01:53:20;;;;;;;;;25.75;24.75;;;;;20.78;57.20;101168.00;2074864;28;48385;-49
2021/09/17 01:54:20;;;;;;;;;22.75;21.75;;;;;20.78;57.01;101165.28;2074115;28;47249;-49
2021/09/17 01:55:23;;;;;;;;;26.25;26.25;;;;;20.77;57.12;101167.13;2074001;28;47143;-52
2021/09/17 01:56:24;;;;;;;;;25.20;23.40;;;;;20.77;57.08;101163.56;2074744;28;48358;-52
2021/09/17 01:57:25;;;;;;;;;24.00;23.75;;;;;20.76;56.96;101164.50;2073815;28;46907;-52
2021/09/17 01:58:26;;;;;;;;;23.25;23.25;;;;;20.76;56.72;101164.50;2076555;28;47179;-51
2021/09/17 01:59:26;;;;;;;;;24.60;24.20;;;;;20.75;57.18;101163.63;2074015;28;46337;-50
2021/09/17 02:00:27;;;;;;;;;22.25;21.50;;;;;20.74;56.88;101159.22;2073345;28;47407;-52
2021/09/17 02:01:27;;;;;;;;;22.00;22.00;;;;;20.75;57.48;101157.38;2073587;28;47211;-51
2021/09/17 02:02:28;;;;;;;;;25.50;22.75;;;;;20.74;57.14;101161.91;2073938;28;47944;-51
2021/09/17 02:03:28;;;;;;;;;25.50;23.75;;;;;20.73;57.35;101159.31;2069553;28;48468;-51
2021/09/17 02:04:29;;;;;;;;;23.50;23.50;;;;;20.72;56.90;101149.47;2074802;28;46976;-50
2021/09/17 02:05:29;;;;;;;;;17.25;16.25;;;;;20.71;57.43;101153.09;2073997;28;47456;-49
2021/09/17 02:06:30;;;;;;;;;25.00;25.00;;;;;20.70;57.53;101157.63;2069172;28;48001;-48
2021/09/17 02:07:30;;;;;;;;;25.25;24.00;;;;;20.69;57.58;101155.00;2071238;28;47335;-52
2021/09/17 02:08:31;;;;;;;;;24.25;23.75;;;;;20.69;57.31;101152.31;2072560;28;48474;-53
2021/09/17 02:09:31;;;;;;;;;22.25;22.00;;;;;20.69;57.41;101150.50;2072828;28;48228;-48
2021/09/17 02:10:32;;;;;;;;;24.00;24.00;;;;;20.66;57.16;101150.66;2074605;28;48249;-52
2021/09/17 02:11:32;;;;;;;;;24.25;24.25;;;;;20.65;57.30;101148.06;2074870;28;47173;-51
2021/09/17 02:12:33;;;;;;;;;23.25;22.75;;;;;20.64;57.33;101147.19;2073986;28;47369;-51
2021/09/17 02:13:34;;;;;;;;;23.75;21.75;;;;;20.63;57.71;101147.28;2074612;28;48065;-50
2021/09/17 02:14:34;;;;;;;;;23.50;23.50;;;;;20.62;57.71;101140.16;2074843;28;45341;-50
2021/09/17 02:15:35;;;;;;;;;21.75;21.50;;;;;20.60;57.78;101140.25;2074549;28;47386;-52
2021/09/17 02:16:37;;;;;;;;;22.75;22.75;;;;;20.60;58.06;101148.34;2074140;28;47345;-50
2021/09/17 02:17:38;;;;;;;;;23.80;21.00;;;;;20.59;57.50;101146.59;2073745;28;48142;-52
2021/09/17 02:18:39;;;;;;;;;21.50;21.50;;;;;20.58;57.73;101144.84;2073637;28;47237;-51
2021/09/17 02:19:39;;;;;;;;;25.50;22.75;;;;;20.57;57.87;101141.25;2073327;28;47304;-49
2021/09/17 02:20:39;;;;;;;;;25.25;22.50;;;;;20.57;57.65;101140.41;2072877;28;47582;-52
2021/09/17 02:21:40;;;;;;;;;18.75;18.75;;;;;20.54;57.38;101138.75;2074554;28;47464;-52
2021/09/17 02:22:41;;;;;;;;;22.50;22.00;;;;;20.54;57.44;101137.88;2074011;28;47286;-51
2021/09/17 02:23:41;;;;;;;;;23.75;23.75;;;;;20.52;57.88;101143.38;2072816;28;47403;-52
2021/09/17 02:24:42;;;;;;;;;23.25;22.00;;;;;20.51;57.80;101140.75;2072762;28;48175;-52
2021/09/17 02:25:42;;;;;;;;;22.75;22.75;;;;;20.49;57.59;101140.84;2071278;28;48025;-53
2021/09/17 02:26:43;;;;;;;;;25.50;23.50;;;;;20.47;58.08;101133.81;2072733;28;47964;-52
2021/09/17 02:27:44;;;;;;;;;22.80;21.20;;;;;20.45;57.54;101130.31;2072540;28;48207;-53
2021/09/17 02:28:44;;;;;;;;;20.25;20.25;;;;;20.44;57.91;101136.66;2073036;28;48115;-50
2021/09/17 02:29:46;;;;;;;;;21.25;19.00;;;;;20.43;57.77;101134.91;2072430;28;47982;-51
2021/09/17 02:30:47;;;;;;;;;20.80;20.80;;;;;20.43;58.23;101134.91;2072800;28;47132;-50
2021/09/17 02:31:48;;;;;;;;;24.80;23.40;;;;;20.41;57.69;101134.97;2072635;28;46606;-49
2021/09/17 02:32:48;;;;;;;;;19.50;19.50;;;;;20.41;57.91;101142.19;2072819;28;47209;-50
2021/09/17 02:33:49;;;;;;;;;24.25;22.75;;;;;20.40;58.22;101130.53;2072764;28;48147;-51
2021/09/17 02:34:49;;;;;;;;;21.50;20.75;;;;;20.38;58.19;101135.16;2071970;28;47014;-49
2021/09/17 02:35:50;;;;;;;;;23.25;21.75;;;;;20.38;57.83;101126.19;2072444;28;48197;-52
2021/09/17 02:36:50;;;;;;;;;20.25;20.25;;;;;20.38;57.75;101134.28;2070211;28;47787;-50
2021/09/17 02:37:51;;;;;;;;;21.00;21.00;;;;;20.36;57.77;101138.88;2063060;28;47121;-49
2021/09/17 02:38:51;;;;;;;;;21.00;19.00;;;;;20.37;57.99;101128.03;2071912;28;46858;-49
2021/09/17 02:39:52;;;;;;;;;20.25;20.00;;;;;20.36;58.27;101137.06;2075283;28;46843;-52
2021/09/17 02:40:53;;;;;;;;;20.00;20.00;;;;;20.35;57.84;101135.31;2079497;28;48237;-50
2021/09/17 02:41:54;;;;;;;;;22.80;22.80;;;;;20.36;57.94;101130.81;2073037;28;47078;-50
2021/09/17 02:42:54;;;;;;;;;23.00;21.25;;;;;20.36;57.82;101133.50;2072311;28;47392;-51
2021/09/17 02:43:55;;;;;;;;;21.00;21.00;;;;;20.35;57.98;101132.63;2072918;28;48756;-51
2021/09/17 02:44:55;;;;;;;;;20.50;19.50;;;;;20.35;58.07;101132.63;2072837;28;46094;-49
2021/09/17 02:45:56;;;;;;;;;21.25;21.25;;;;;20.36;58.27;101139.75;2073285;28;48373;-50
2021/09/17 02:46:57;;;;;;;;;19.20;17.60;;;;;20.36;58.22;101139.75;2072119;28;47244;-49
2021/09/17 02:47:58;;;;;;;;;27.20;26.00;;;;;20.36;57.99;101130.81;2073491;28;47155;-51
2021/09/17 02:48:58;;;;;;;;;22.25;21.00;;;;;20.35;58.08;101126.38;2073733;28;45476;-51
2021/09/17 02:49:59;;;;;;;;;20.25;19.25;;;;;20.34;58.00;101128.19;2072771;28;46946;-51
2021/09/17 02:50:59;;;;;;;;;21.50;20.50;;;;;20.32;57.97;101129.22;2073144;28;47272;-51
2021/09/17 02:52:01;;;;;;;;;23.00;21.50;;;;;20.31;58.41;101124.78;2072876;28;48103;-52
2021/09/17 02:53:02;;;;;;;;;21.00;19.20;;;;;20.29;58.73;101125.75;2072310;28;46169;-50
2021/09/17 02:54:02;;;;;;;;;21.00;20.00;;;;;20.28;58.33;101124.00;2072898;28;47883;-50
2021/09/17 02:55:04;;;;;;;;;23.00;21.75;;;;;20.27;58.37;101121.41;2072860;28;47388;-52
2021/09/17 02:56:05;;;;;;;;;22.40;21.60;;;;;20.28;58.14;101125.81;2073263;28;48458;-47
2021/09/17 02:57:05;;;;;;;;;22.00;19.75;;;;;20.25;58.78;101118.78;2072324;28;47277;-51
2021/09/17 02:58:06;;;;;;;;;19.75;19.75;;;;;20.24;58.67;101122.44;2072569;28;47104;-52
2021/09/17 02:59:06;;;;;;;;;20.25;19.75;;;;;20.24;58.74;101118.88;2072377;28;47145;-48
2021/09/17 03:00:09;;;;;;;;;21.00;21.00;;;;;20.23;58.38;101114.44;2072191;28;47158;-49
2021/09/17 03:01:09;;;;;;;;;22.40;22.40;;;;;20.23;58.40;101118.00;2072324;28;45276;-52
2021/09/17 03:02:10;;;;;;;;;18.00;18.00;;;;;20.23;58.86;101118.00;2072789;28;47191;-49
2021/09/17 03:03:10;;;;;;;;;23.00;21.75;;;;;20.23;58.86;101115.31;2072450;28;45157;-51
2021/09/17 03:04:11;;;;;;;;;17.00;17.00;;;;;20.24;58.49;101118.88;2081458;28;47954;-51
2021/09/17 03:05:12;;;;;;;;;20.75;20.75;;;;;20.24;58.57;101118.88;2082015;28;47092;-50
2021/09/17 03:06:13;;;;;;;;;15.00;15.00;;;;;20.24;58.69;101117.06;2074585;28;47524;-51
2021/09/17 03:07:13;;;;;;;;;20.50;20.50;;;;;20.24;58.74;101122.44;2064359;28;47073;-49
2021/09/17 03:08:13;;;;;;;;;19.50;19.50;;;;;20.23;58.19;101120.72;2062862;28;47024;-50
2021/09/17 03:09:14;;;;;;;;;17.50;17.50;;;;;20.23;58.77;101118.00;2072632;28;48442;-52
2021/09/17 03:10:14;;;;;;;;;22.75;22.00;;;;;20.23;58.49;101112.63;2074737;28;47072;-52
2021/09/17 03:11:15;;;;;;;;;21.25;20.50;;;;;20.23;58.25;101109.94;2074255;28;47065;-49
2021/09/17 03:12:16;;;;;;;;;17.40;15.00;;;;;20.24;58.67;101110.78;2073762;28;47430;-51
2021/09/17 03:13:16;;;;;;;;;20.50;19.00;;;;;20.23;58.69;101112.63;2072163;28;45344;-52
2021/09/17 03:14:17;;;;;;;;;21.25;19.50;;;;;20.22;58.73;101110.88;2073998;28;47060;-52
2021/09/17 03:15:17;;;;;;;;;18.75;18.00;;;;;20.22;58.53;101110.00;2073624;28;47405;-48
2021/09/17 03:16:18;;;;;;;;;20.25;19.25;;;;;20.22;58.39;101107.31;2074100;28;46081;-50
2021/09/17 03:17:18;;;;;;;;;20.75;19.75;;;;;20.21;58.31;101101.06;2073390;28;48385;-53
2021/09/17 03:18:19;;;;;;;;;18.75;17.50;;;;;20.20;58.73;101104.72;2071233;28;47168;-50
2021/09/17 03:19:19;;;;;;;;;18.50;16.50;;;;;20.20;58.63;101104.72;2072090;28;46815;-53
2021/09/17 03:20:20;;;;;;;;;19.00;19.00;;;;;20.19;58.61;101102.94;2073080;28;48382;-52
2021/09/17 03:21:21;;;;;;;;;19.50;16.50;;;;;20.19;58.43;101099.38;2073545;28;47549;-52
2021/09/17 03:22:21;;;;;;;;;18.50;18.50;;;;;20.18;58.37;101097.63;2074208;28;46989;-49
2021/09/17 03:23:22;;;;;;;;;22.25;20.25;;;;;20.17;58.74;101099.47;2074432;28;48216;-49
2021/09/17 03:24:22;;;;;;;;;22.50;19.00;;;;;20.17;58.69;101104.00;2072088;28;47902;-52
2021/09/17 03:25:23;;;;;;;;;18.00;17.25;;;;;20.17;59.12;101098.59;2065626;28;47107;-48
2021/09/17 03:26:23;;;;;;;;;19.25;18.50;;;;;20.14;58.46;101096.09;2079414;28;46198;-52
2021/09/17 03:27:24;;;;;;;;;21.50;21.50;;;;;20.11;58.72;101094.44;2076519;28;47216;-48
2021/09/17 03:28:25;;;;;;;;;20.00;20.00;;;;;20.11;58.75;101090.88;2073660;28;46748;-50
2021/09/17 03:29:25;;;;;;;;;17.20;17.00;;;;;20.09;58.84;101101.75;2074481;28;46066;-52
2021/09/17 03:30:26;;;;;;;;;19.50;19.50;;;;;20.07;58.48;101090.16;2074339;28;47279;-50
2021/09/17 03:31:27;;;;;;;;;19.50;19.50;;;;;20.06;58.90;101093.81;2074715;28;47358;-52
2021/09/17 03:32:28;;;;;;;;;19.60;19.60;;;;;20.05;58.66;101094.75;2074515;28;45445;-50
2021/09/17 03:33:28;;;;;;;;;20.25;18.75;;;;;20.06;58.78;101095.63;2074435;28;47674;-51
2021/09/17 03:34:29;;;;;;;;;20.75;20.00;;;;;20.05;58.55;101094.75;2074182;28;46159;-50
2021/09/17 03:35:30;;;;;;;;;17.75;17.75;;;;;20.05;58.64;101094.75;2073908;28;45314;-47
2021/09/17 03:36:30;;;;;;;;;19.50;19.50;;;;;20.04;59.03;101089.47;2073882;28;48462;-50
2021/09/17 03:37:31;;;;;;;;;18.75;18.75;;;;;20.03;59.08;101096.66;2073909;28;45266;-51
2021/09/17 03:38:32;;;;;;;;;20.50;19.75;;;;;20.02;58.82;101092.25;2074146;28;47100;-48
2021/09/17 03:39:32;;;;;;;;;16.25;15.50;;;;;20.01;58.65;101092.31;2073891;28;47657;-49
2021/09/17 03:40:34;;;;;;;;;20.75;19.75;;;;;19.99;58.69;101084.34;2074328;28;46717;-50
2021/09/17 03:41:35;;;;;;;;;19.00;19.00;;;;;19.99;59.00;101090.59;2073670;28;47458;-49
2021/09/17 03:42:35;;;;;;;;;21.25;19.75;;;;;19.99;58.88;101090.59;2073706;28;48265;-50
2021/09/17 03:43:36;;;;;;;;;19.25;18.25;;;;;19.99;59.01;101089.72;2074521;28;47264;-51
2021/09/17 03:44:37;;;;;;;;;18.00;17.00;;;;;19.98;58.93;101090.69;2073652;28;47502;-49
2021/09/17 03:45:37;;;;;;;;;20.50;19.75;;;;;19.98;59.26;101087.97;2071809;28;47223;-52
2021/09/17 03:46:38;;;;;;;;;18.75;18.75;;;;;19.99;59.07;101087.03;2073046;28;46663;-49
2021/09/17 03:47:39;;;;;;;;;17.60;17.20;;;;;19.98;59.06;101086.16;2073407;28;47262;-52
2021/09/17 03:48:40;;;;;;;;;20.25;19.75;;;;;19.98;59.32;101087.97;2073683;28;46988;-50
2021/09/17 03:49:40;;;;;;;;;18.80;18.80;;;;;19.97;59.27;101086.25;2073598;28;48203;-52
2021/09/17 03:50:41;;;;;;;;;18.00;18.00;;;;;19.96;59.22;101087.19;2074270;28;47425;-52
2021/09/17 03:51:41;;;;;;;;;19.75;19.75;;;;;19.96;59.07;101087.19;2083962;28;48035;-52
2021/09/17 03:52:42;;;;;;;;;20.00;20.00;;;;;19.96;59.42;101092.59;2075164;28;47184;-52
2021/09/17 03:53:42;;;;;;;;;21.75;21.75;;;;;19.95;59.39;101090.84;2074640;28;47139;-52
2021/09/17 03:54:43;;;;;;;;;19.50;19.50;;;;;19.95;59.55;101096.25;2075057;28;48005;-49
2021/09/17 03:55:44;;;;;;;;;21.75;20.75;;;;;19.94;59.31;101097.16;2065701;28;47046;-52
2021/09/17 03:56:44;;;;;;;;;22.00;21.25;;;;;19.93;59.29;101093.59;2067767;28;47655;-52
2021/09/17 03:57:45;;;;;;;;;21.00;19.25;;;;;19.93;58.97;101093.59;2075562;28;48463;-50
2021/09/17 03:58:45;;;;;;;;;20.50;20.50;;;;;19.92;59.52;101096.38;2075520;28;47571;-52
2021/09/17 03:59:46;;;;;;;;;19.25;19.25;;;;;19.92;59.06;101091.00;2075381;28;47256;-48
2021/09/17 04:00:46;;;;;;;;;21.25;20.25;;;;;19.93;58.92;101092.72;2074884;28;48050;-53
2021/09/17 04:01:47;;;;;;;;;20.00;20.00;;;;;19.91;59.04;101092.81;2075494;28;47047;-52
2021/09/17 04:02:48;;;;;;;;;18.20;18.20;;;;;19.92;59.43;101089.16;2074900;28;46397;-51
2021/09/17 04:03:48;;;;;;;;;20.25;20.25;;;;;19.92;59.44;101089.16;2074280;28;47074;-52
2021/09/17 04:04:49;;;;;;;;;15.25;15.00;;;;;19.92;59.46;101094.56;2080987;28;47173;-52
2021/09/17 04:05:49;;;;;;;;;18.00;18.00;;;;;19.93;59.51;101087.34;2066792;28;48381;-50
2021/09/17 04:06:50;;;;;;;;;19.50;19.50;;;;;19.93;59.51;101090.03;2055023;28;46814;-56
2021/09/17 04:07:50;;;;;;;;;20.50;19.50;;;;;19.92;59.20;101083.78;2065863;28;47354;-52
2021/09/17 04:08:51;;;;;;;;;20.50;18.25;;;;;19.94;59.01;101086.38;2074782;28;47247;-52
2021/09/17 04:09:51;;;;;;;;;20.25;19.00;;;;;19.93;58.99;101090.03;2074058;28;47222;-48
2021/09/17 04:10:51;;;;;;;;;21.50;20.25;;;;;19.92;59.08;101086.47;2074334;28;48207;-51
2021/09/17 04:11:52;;;;;;;;;17.75;16.50;;;;;19.93;59.44;101093.59;2074821;28;46399;-53
2021/09/17 04:12:53;;;;;;;;;19.75;18.50;;;;;19.94;59.43;101086.38;2075558;28;47351;-52
2021/09/17 04:13:53;;;;;;;;;21.00;19.25;;;;;19.94;59.34;101091.78;2075483;28;48348;-49
2021/09/17 04:14:53;;;;;;;;;19.75;19.75;;;;;19.94;59.35;101092.66;2075474;28;48055;-53
2021/09/17 04:15:54;;;;;;;;;19.50;19.50;;;;;19.96;59.08;101089.91;2074656;28;45672;-52
2021/09/17 04:16:54;;;;;;;;;19.25;19.00;;;;;19.95;59.36;101088.16;2075499;28;47952;-51
2021/09/17 04:17:55;;;;;;;;;19.50;19.50;;;;;19.96;59.27;101085.38;2074577;28;47177;-52
2021/09/17 04:18:55;;;;;;;;;21.25;21.25;;;;;19.95;59.32;101094.41;2075287;28;48070;-52
2021/09/17 04:19:56;;;;;;;;;18.25;16.25;;;;;19.96;59.39;101090.75;2073333;28;46838;-51
2021/09/17 04:20:56;;;;;;;;;19.50;19.00;;;;;19.96;59.42;101092.59;2074224;28;47842;-54
2021/09/17 04:21:57;;;;;;;;;17.50;17.50;;;;;19.96;59.26;101095.28;2075562;28;45669;-52
2021/09/17 04:22:57;;;;;;;;;21.50;20.00;;;;;19.95;59.15;101090.84;2074418;28;47556;-53
2021/09/17 04:23:58;;;;;;;;;19.50;19.50;;;;;19.95;59.30;101094.41;2062465;28;47143;-51
2021/09/17 04:24:58;;;;;;;;;20.00;19.50;;;;;19.95;59.36;101098.94;2058347;28;47329;-50
2021/09/17 04:25:59;;;;;;;;;22.00;22.00;;;;;19.96;59.07;101095.28;2073754;28;47475;-47
2021/09/17 04:26:59;;;;;;;;;22.00;20.50;;;;;19.95;59.43;101093.53;2075328;28;47287;-48
2021/09/17 04:28:00;;;;;;;;;19.75;18.00;;;;;19.94;59.22;101091.78;2075860;28;47222;-50
2021/09/17 04:29:02;;;;;;;;;21.60;19.60;;;;;19.93;59.16;101093.59;2075100;28;47680;-53
2021/09/17 04:30:05;;;;;;;;;19.80;19.40;;;;;19.92;59.00;101091.00;2073532;28;46864;-51
2021/09/17 04:31:05;;;;;;;;;18.00;18.00;;;;;19.92;59.59;101091.00;2073453;28;47517;-54
2021/09/17 04:32:06;;;;;;;;;24.25;21.00;;;;;19.91;59.12;101091.94;2073652;28;48365;-52
2021/09/17 04:33:07;;;;;;;;;19.50;16.75;;;;;19.90;59.65;101085.69;2073160;28;46136;-52
2021/09/17 04:34:08;;;;;;;;;17.67;17.67;;;;;19.91;59.27;101087.44;2073991;28;48349;-50
2021/09/17 04:35:09;;;;;;;;;20.80;19.40;;;;;19.89;58.95;101086.66;2073391;28;48005;-49
2021/09/17 04:36:09;;;;;;;;;19.60;19.00;;;;;19.88;59.38;101082.22;2074861;28;47258;-49